Date,TemperatureHighF,TemperatureAvgF,TemperatureLowF,DewpointHighF,DewpointAvgF,DewpointLowF,HumidityHigh,HumidityAvg,HumidityLow,PressureMaxIn,PressureMinIn,WindSpeedMaxMPH,WindSpeedAvgMPH,GustSpeedMaxMPH,PrecipitationSumIn
2013-1-1,43.0,39.6,35.1,7.7,5.5,3.1,27,24,23,29.59,29.47,14,4,14,0.00
2013-1-2,36.5,31.9,27.0,4.4,0.2,-5.9,27,25,23,29.83,29.59,15,3,15,0.00
2013-1-3,36.7,29.2,23.0,4.4,-2.9,-7.7,27,24,23,29.83,29.71,11,2,11,0.00
2013-1-4,40.5,33.3,25.5,6.0,0.9,-6.0,27,25,23,29.77,29.68,23,6,23,0.00
2013-1-5,41.5,35.8,31.1,6.5,3.8,-2.3,27,26,23,29.94,29.71,17,4,17,0.00
2013-1-6,48.9,41.0,31.1,20.3,8.3,3.1,53,26,19,29.77,29.59,15,3,15,0.00
2013-1-7,46.0,39.2,28.0,9.0,5.3,-1.5,28,24,21,30.00,29.71,16,4,16,0.00
2013-1-8,51.3,37.3,27.1,10.8,3.9,-1.5,28,24,19,30.00,29.94,12,2,12,0.00
2013-1-9,49.1,40.5,30.4,18.9,8.5,2.1,48,27,19,29.94,29.80,12,2,13,0.00
2013-1-10,50.9,44.4,36.1,10.7,7.8,3.5,25,22,19,30.18,29.94,13,3,13,0.00
2013-1-11,45.5,40.6,35.4,27.4,12.4,3.1,55,33,21,30.09,29.68,8,1,8,0.04
2013-1-12,55.2,46.2,41.7,32.2,16.1,-0.4,51,32,14,29.74,29.68,8,1,8,0.00
2013-1-13,48.9,45.8,41.2,34.2,24.4,1.1,64,46,14,29.71,29.56,8,1,8,0.00
2013-1-14,57.4,50.7,39.4,45.9,19.2,1.0,65,32,11,29.88,29.53,13,3,13,0.20
2013-1-15,40.1,38.3,34.3,24.1,19.0,-0.8,57,47,18,29.91,29.74,9,2,9,0.59
2013-1-16,40.1,37.3,34.2,22.7,17.5,4.5,57,46,23,29.74,29.44,14,2,14,0.43
2013-1-17,43.3,39.8,36.7,23.9,7.9,-0.3,51,27,18,29.71,29.56,13,3,13,0.00
2013-1-18,36.7,32.5,27.0,4.4,0.8,-5.9,27,26,23,30.06,29.62,24,5,24,0.00
2013-1-19,50.9,39.5,26.6,10.5,4.5,-6.0,27,23,19,30.00,29.53,15,5,17,0.00
2013-1-20,55.8,43.0,33.1,12.8,6.9,2.4,27,22,18,29.68,29.38,29,6,29,0.00
2013-1-21,38.7,32.8,28.2,5.7,0.0,-4.8,27,24,23,29.68,29.38,22,4,22,0.00
2013-1-22,28.2,19.9,15.1,-4.7,-8.9,-11.9,28,27,23,29.85,29.50,25,9,25,0.00
2013-1-23,24.1,19.1,12.6,-6.3,-9.4,-12.9,30,27,25,29.91,29.74,19,5,19,0.00
2013-1-24,25.5,19.9,14.5,-5.6,-8.9,-12.4,28,27,25,30.06,29.68,24,4,24,0.00
2013-1-25,23.4,18.6,14.0,-5.6,-8.8,-12.7,32,28,25,30.06,29.65,9,2,11,0.00
2013-1-26,32.5,25.3,19.9,1.9,-4.2,-7.6,30,27,23,30.00,29.65,14,2,14,0.00
2013-1-27,35.8,26.7,18.7,4.4,-2.9,-6.7,32,27,23,30.18,30.00,10,2,10,0.00
2013-1-28,38.3,33.7,27.0,23.8,14.7,-4.5,58,47,23,30.09,29.62,13,3,13,0.20
2013-1-29,63.9,47.4,36.3,35.2,22.6,1.5,60,42,12,29.71,29.56,10,2,10,0.00
2013-1-30,68.5,54.8,43.0,51.9,33.4,-0.8,81,49,7,29.56,28.85,28,4,28,1.22
2013-1-31,61.7,42.0,27.7,58.7,12.7,-5.3,90,34,12,29.50,28.73,38,12,38,0.51
2013-2-1,29.7,25.6,19.4,9.8,-5.5,-9.6,46,25,23,29.94,29.41,28,8,28,0.00
2013-2-2,29.5,23.4,16.9,6.9,-4.9,-10.9,42,28,23,29.94,29.59,14,4,15,0.00
2013-2-3,33.8,28.5,21.0,10.2,2.8,-4.3,51,34,23,29.59,29.41,20,2,20,0.00
2013-2-4,36.1,29.2,22.5,4.4,-2.6,-7.6,27,25,23,29.68,29.47,21,5,21,0.00
2013-2-5,37.9,33.7,29.7,5.1,2.1,-3.6,27,26,23,29.50,29.44,6,1,6,0.00
2013-2-6,41.7,35.6,28.2,6.7,3.2,-5.0,32,25,23,29.91,29.50,23,4,23,0.00
2013-2-7,37.0,32.1,25.3,4.4,0.9,-6.0,28,26,23,30.03,29.77,8,2,10,0.00
2013-2-8,41.5,36.6,32.9,25.5,14.5,2.2,58,42,23,29.80,29.32,32,5,32,0.20
2013-2-9,38.1,31.6,27.1,5.2,-0.7,-5.7,27,25,23,29.97,29.47,26,8,29,0.00
2013-2-10,43.0,32.3,20.3,7.7,0.4,-8.7,30,25,23,30.06,29.83,11,3,11,0.00
2013-2-11,51.1,43.1,35.1,27.6,12.2,0.1,58,33,14,29.83,29.26,15,4,15,0.28
2013-2-12,52.3,45.2,35.4,11.7,8.2,3.1,27,22,19,29.56,29.38,24,5,24,0.00
2013-2-13,45.0,36.1,31.1,20.2,8.0,0.7,57,32,21,29.56,29.23,10,2,10,0.12
2013-2-14,45.5,36.9,31.6,20.6,10.7,2.1,57,36,21,29.59,29.35,14,3,14,0.12
2013-2-15,55.9,42.0,31.6,21.2,10.2,1.1,55,29,18,29.62,29.47,23,3,23,0.08
2013-2-16,36.7,34.7,31.3,21.5,11.1,0.8,57,40,25,29.59,29.38,10,3,12,0.00
2013-2-17,31.8,27.3,22.8,1.1,-4.9,-7.6,27,24,23,29.77,29.38,32,9,32,0.00
2013-2-18,39.7,28.7,19.9,6.0,-2.6,-9.0,27,25,23,29.94,29.74,16,4,16,0.00
2013-2-19,43.0,36.3,27.1,26.8,10.2,-5.7,55,35,23,29.74,29.29,22,5,22,0.12
2013-2-20,36.7,30.9,24.3,4.4,-0.8,-6.7,27,25,23,29.71,29.41,26,9,26,0.00
2013-2-21,36.9,29.3,23.0,4.4,-2.2,-7.6,27,25,23,29.88,29.68,24,7,24,0.00
2013-2-22,34.2,30.9,28.2,16.9,1.0,-4.8,53,28,23,29.97,29.80,8,2,13,0.00
2013-2-23,46.2,38.9,32.0,23.6,12.0,-0.4,57,38,16,29.80,29.38,8,2,8,0.04
2013-2-24,48.2,40.8,31.3,27.1,3.9,-2.2,50,22,16,29.68,29.38,27,6,27,0.00
2013-2-25,46.4,36.2,27.7,9.0,2.4,-5.4,27,24,21,29.80,29.68,13,3,13,0.00
2013-2-26,42.4,36.4,28.6,32.4,12.9,-1.5,67,39,23,29.80,29.21,17,4,20,0.51
2013-2-27,52.9,45.6,40.1,34.6,19.3,0.4,69,41,16,29.26,29.09,18,5,25,0.00
2013-2-28,47.1,41.9,39.2,16.0,7.2,4.5,37,23,21,29.29,29.21,20,6,20,0.00
2013-3-1,44.8,39.9,34.0,9.0,5.8,3.1,27,24,21,29.44,29.29,13,6,16,0.00
2013-3-2,38.5,33.6,30.0,5.4,2.0,-3.3,27,26,23,29.44,29.38,17,7,17,0.00
2013-3-3,39.2,33.3,29.1,5.8,1.2,-4.0,27,25,23,29.47,29.35,21,8,21,0.00
2013-3-4,41.4,33.6,26.2,6.4,1.2,-6.0,27,25,23,29.59,29.47,25,8,25,0.00
2013-3-5,48.0,37.6,26.8,10.2,3.2,-6.0,27,23,21,29.65,29.41,12,3,12,0.00
2013-3-6,37.9,35.6,33.4,22.5,14.9,3.1,58,44,25,29.56,29.21,29,8,29,0.71
2013-3-7,48.6,40.5,34.7,10.2,6.1,3.1,27,24,19,29.71,29.56,23,6,23,0.00
2013-3-8,48.2,41.0,33.1,10.2,6.4,2.4,27,23,19,29.83,29.71,27,8,27,0.00
2013-3-9,59.5,45.4,34.9,13.6,7.9,3.1,27,22,16,29.91,29.80,15,3,15,0.00
2013-3-10,60.8,46.3,32.2,14.1,8.2,1.5,27,21,16,29.91,29.83,17,3,17,0.00
2013-3-11,58.8,49.9,42.3,26.6,14.9,7.1,50,26,16,29.85,29.53,18,5,18,0.00
2013-3-12,56.8,50.6,40.5,34.0,9.0,1.0,48,19,11,29.56,29.29,20,5,21,0.71
2013-3-13,48.6,40.2,31.3,10.2,5.8,0.8,27,24,19,29.62,29.47,25,6,25,0.00
2013-3-14,43.2,36.6,31.1,7.9,3.8,-2.3,27,25,23,29.68,29.59,30,10,30,0.00
2013-3-15,55.2,42.1,27.9,12.8,5.3,-5.1,27,21,18,29.65,29.35,18,4,18,0.00
2013-3-16,52.7,44.9,37.8,12.2,8.1,4.5,25,22,19,29.50,29.23,13,3,13,0.00
2013-3-17,41.7,37.7,33.4,6.8,4.7,2.7,32,25,23,29.85,29.50,15,3,15,0.00
2013-3-18,37.8,36.1,34.7,22.6,7.0,-1.5,57,31,19,29.88,29.47,13,3,13,0.35
2013-3-19,57.0,44.7,36.9,28.8,5.2,-2.6,51,20,16,29.50,29.29,28,6,28,0.00
2013-3-20,51.4,41.7,30.0,11.1,6.4,-3.3,27,23,19,29.56,29.35,18,5,23,0.00
2013-3-21,40.1,34.2,27.9,6.0,2.1,-5.1,27,25,23,29.47,29.32,17,7,24,0.00
2013-3-22,44.8,34.9,26.8,9.0,1.6,-6.0,27,24,21,29.56,29.44,22,6,23,0.00
2013-3-23,51.4,39.0,27.0,11.0,3.9,-5.9,27,23,19,29.59,29.50,22,5,22,0.00
2013-3-24,44.4,37.1,30.0,8.8,4.3,-3.4,27,25,23,29.59,29.26,11,2,11,0.00
2013-3-25,38.7,35.3,33.1,20.5,13.8,3.0,55,42,27,29.26,29.09,11,2,11,0.47
2013-3-26,49.6,40.8,32.2,21.4,8.7,-3.6,55,28,19,29.53,29.26,16,5,16,0.04
2013-3-27,50.0,42.8,37.0,10.2,7.0,4.3,25,22,19,29.68,29.53,26,8,26,0.00
2013-3-28,48.6,42.2,35.8,10.2,7.0,3.2,25,23,19,29.80,29.65,14,6,20,0.00
2013-3-29,55.9,46.7,39.7,12.8,8.8,5.0,23,21,18,29.83,29.71,17,4,17,0.00
2013-3-30,59.5,47.9,36.9,13.6,8.9,4.2,25,21,16,29.80,29.68,13,2,13,0.00
2013-3-31,55.2,46.3,38.1,31.5,7.7,0.5,48,21,14,29.71,29.32,12,2,12,0.00
2013-4-1,64.2,49.3,38.5,30.9,7.3,-0.4,46,18,14,29.56,29.29,28,6,28,0.00
2013-4-2,47.7,39.3,30.2,9.9,5.1,-3.1,27,24,21,29.74,29.56,22,5,22,0.00
2013-4-3,50.4,39.0,27.5,10.2,4.4,-5.4,27,23,19,29.94,29.74,28,5,28,0.00
2013-4-4,51.6,38.7,25.5,11.3,3.8,-6.0,27,23,19,30.00,29.68,10,3,12,0.00
2013-4-5,64.4,49.7,37.6,25.4,13.2,-1.8,51,26,14,29.68,29.38,20,4,20,0.12
2013-4-6,57.4,46.2,35.4,13.4,8.5,3.1,27,21,16,29.91,29.62,13,4,13,0.00
2013-4-7,69.4,53.2,37.9,23.6,10.7,4.5,28,19,12,29.85,29.56,19,6,20,0.00
2013-4-8,79.5,65.0,50.2,25.8,17.1,10.1,19,16,12,29.65,29.53,15,3,15,0.00
2013-4-9,84.2,71.0,57.6,25.8,18.8,11.5,18,14,11,29.65,29.50,17,3,17,0.00
2013-4-10,89.4,76.5,63.5,25.8,20.3,12.8,18,12,9,29.53,29.35,17,4,17,0.00
2013-4-11,85.1,69.1,54.1,32.9,21.2,12.4,44,17,11,29.50,29.35,15,4,15,0.00
2013-4-12,64.8,54.8,50.4,38.7,8.5,1.0,46,17,9,29.41,29.18,17,3,17,0.63
2013-4-13,67.1,55.5,43.3,30.2,9.6,-0.1,46,16,12,29.53,29.35,16,4,16,0.00
2013-4-14,66.4,55.1,42.3,15.8,11.9,7.1,25,18,12,29.71,29.50,18,4,18,0.00
2013-4-15,62.6,56.1,52.0,32.4,15.5,10.8,46,21,16,29.88,29.71,13,2,13,0.00
2013-4-16,75.7,61.6,51.6,24.3,19.0,10.9,28,19,14,29.91,29.71,15,4,15,0.00
2013-4-17,75.0,65.7,58.1,41.7,22.3,-0.8,42,21,7,29.83,29.71,15,2,15,0.00
2013-4-18,75.2,62.8,56.7,43.5,15.4,-0.8,46,17,7,29.83,29.59,18,4,18,0.04
2013-4-19,76.3,64.4,52.2,44.7,15.2,-0.8,44,17,7,29.59,29.18,20,5,20,0.91
2013-4-20,60.4,52.0,45.1,30.2,10.2,1.5,48,19,12,29.91,29.35,22,6,22,0.04
2013-4-21,57.9,47.1,37.0,13.6,8.9,4.3,25,21,16,30.18,29.91,13,3,13,0.00
2013-4-22,58.8,47.0,36.1,13.6,8.8,3.5,25,21,16,30.18,30.00,15,3,15,0.00
2013-4-23,63.5,51.8,45.5,15.6,10.7,8.1,21,19,14,30.00,29.71,9,3,9,0.00
2013-4-24,77.9,60.4,43.3,34.0,18.8,0.3,51,22,12,29.71,29.38,26,5,26,0.00
2013-4-25,66.0,54.9,44.4,15.8,11.6,7.3,23,18,14,29.88,29.53,28,5,28,0.00
2013-4-26,67.3,55.0,43.9,15.8,11.5,7.3,23,18,12,30.03,29.88,13,3,13,0.00
2013-4-27,72.0,56.4,40.8,23.3,12.6,5.9,23,18,12,30.00,29.88,11,2,11,0.00
2013-4-28,69.4,56.4,42.3,23.7,12.2,7.1,27,17,12,29.88,29.74,17,4,17,0.00
2013-4-29,58.6,55.6,53.1,34.0,6.6,1.0,48,15,11,29.77,29.65,13,3,13,0.20
2013-4-30,59.7,55.7,49.3,35.5,8.9,1.0,46,17,11,29.88,29.68,11,1,11,0.28
2013-5-1,70.7,56.9,43.9,27.3,13.7,7.3,42,19,12,30.00,29.88,12,2,12,0.00
2013-5-2,70.5,56.7,43.3,30.7,17.4,8.6,50,24,12,30.03,29.91,13,2,13,0.00
2013-5-3,68.5,55.9,46.4,30.2,13.5,8.4,46,19,12,29.97,29.88,16,2,16,0.00
2013-5-4,70.0,56.5,46.2,23.9,12.7,8.4,25,17,12,29.94,29.77,13,3,13,0.00
2013-5-5,64.9,53.2,44.6,15.6,11.1,7.3,21,18,14,29.85,29.74,14,3,14,0.00
2013-5-6,61.7,54.8,46.2,37.8,16.7,3.4,46,22,11,29.77,29.65,13,3,13,0.00
2013-5-7,62.2,59.1,57.2,5.1,2.9,1.3,11,11,9,29.68,29.53,13,3,13,0.83
2013-5-8,69.4,59.9,55.8,34.4,6.0,-0.8,34,12,7,29.59,29.53,13,2,13,0.16
2013-5-9,74.8,62.6,52.5,38.5,14.4,1.0,42,16,9,29.59,29.50,13,2,13,0.00
2013-5-10,84.9,68.8,54.1,41.1,16.2,-0.8,42,14,7,29.59,29.47,17,3,17,0.51
2013-5-11,76.8,65.8,61.9,37.5,7.0,-2.9,37,10,5,29.53,29.32,13,2,13,0.39
2013-5-12,65.1,58.1,46.2,34.8,11.7,1.3,46,16,9,29.62,29.32,23,6,23,0.00
2013-5-13,61.0,50.3,40.5,14.2,10.0,5.4,23,20,16,29.74,29.59,20,4,20,0.00
2013-5-14,64.9,51.2,36.1,15.4,10.1,3.4,25,19,14,29.80,29.65,17,2,17,0.00
2013-5-15,81.0,65.0,53.8,26.0,18.3,10.9,30,17,12,29.68,29.29,13,2,14,0.00
2013-5-16,80.2,72.5,63.7,25.8,23.1,19.6,19,16,12,29.50,29.32,18,4,18,0.00
2013-5-17,84.9,70.8,57.4,37.7,22.3,12.8,42,17,11,29.74,29.50,11,2,11,0.00
2013-5-18,66.9,62.6,58.8,37.5,19.2,3.7,44,19,11,29.83,29.74,12,2,12,0.00
2013-5-19,70.9,62.9,59.0,44.5,6.9,-2.9,41,12,5,29.83,29.71,8,1,8,0.00
2013-5-20,82.2,70.3,63.3,43.4,15.8,-2.9,41,14,5,29.71,29.59,13,2,13,0.00
2013-5-21,85.8,74.2,65.7,47.6,16.6,-2.9,41,13,5,29.59,29.47,11,3,11,0.00
2013-5-22,90.0,76.8,66.9,50.3,19.9,-8.8,41,14,4,29.53,29.41,14,3,14,0.00
2013-5-23,81.5,70.4,64.0,43.8,21.2,-2.9,44,19,5,29.50,29.35,17,3,17,0.87
2013-5-24,64.2,56.5,48.7,33.7,8.6,1.0,46,16,9,29.74,29.32,25,6,25,0.12
2013-5-25,66.6,54.9,43.9,15.8,11.7,7.3,23,18,12,29.74,29.65,24,8,24,0.00
2013-5-26,72.7,59.2,47.1,23.8,13.9,8.4,21,17,12,29.80,29.71,17,5,17,0.00
2013-5-27,72.3,61.5,47.5,23.9,15.4,8.4,21,16,12,29.88,29.77,9,2,9,0.00
2013-5-28,77.7,65.4,57.2,43.9,14.2,-0.8,46,15,7,29.80,29.68,13,1,13,0.35
2013-5-29,89.2,75.6,64.0,35.4,14.1,-8.8,23,10,4,29.71,29.65,13,2,13,0.00
2013-5-30,93.4,79.4,67.1,39.5,23.0,-2.9,35,14,5,29.77,29.68,12,2,12,0.00
2013-5-31,91.0,78.9,66.6,41.5,22.1,-2.9,39,13,5,29.74,29.62,17,3,17,0.00
2013-6-1,92.3,79.9,67.5,40.0,24.2,19.0,35,14,7,29.65,29.53,14,4,14,0.00
2013-6-2,84.7,75.9,67.5,43.8,18.7,1.5,41,12,7,29.53,29.44,26,4,26,0.31
2013-6-3,79.3,71.1,66.7,42.9,11.2,-8.8,34,11,4,29.53,29.41,15,2,15,0.67
2013-6-4,77.7,66.9,56.7,24.9,19.4,11.3,21,16,12,29.71,29.53,13,3,13,0.00
2013-6-5,80.8,67.9,55.4,25.8,21.7,15.2,30,18,12,29.77,29.65,12,2,12,0.00
2013-6-6,73.6,66.0,60.3,41.3,17.7,-0.8,39,16,7,29.68,29.47,15,3,15,0.28
2013-6-7,70.5,67.4,64.6,53.5,4.4,-2.9,58,10,5,29.47,29.18,13,2,17,1.93
2013-6-8,80.1,69.7,64.0,38.4,15.1,-0.8,35,13,7,29.68,29.26,15,3,15,0.00
2013-6-9,82.6,71.0,62.2,39.9,22.3,-0.8,42,17,7,29.80,29.68,10,1,10,0.00
2013-6-10,70.7,68.8,67.5,44.4,11.8,-2.9,41,15,5,29.71,29.62,8,0,8,0.47
2013-6-14,77.4,70.2,64.9,24.8,22.3,20.0,18,16,14,29.56,29.47,11,2,11,2.68
2013-6-15,83.5,71.4,60.4,25.8,22.6,18.9,25,16,11,29.68,29.56,15,3,15,0.00
2013-6-16,83.8,73.2,63.5,27.2,22.8,19.6,21,15,11,29.62,29.47,17,2,17,0.00
2013-6-17,88.9,78.0,68.7,25.8,23.3,21.5,18,14,9,29.56,29.47,12,2,12,0.00
2013-6-18,77.2,70.8,64.0,47.8,21.2,-8.8,41,20,4,29.53,29.38,9,0,9,0.20
2013-6-19,77.9,68.1,62.1,43.9,16.1,-0.8,41,15,7,29.74,29.47,10,1,10,0.04
2013-6-20,81.3,69.6,59.2,43.2,24.7,-0.8,44,21,7,29.85,29.74,11,3,11,0.00
2013-6-21,84.2,70.9,57.2,25.6,22.1,17.9,25,16,11,29.91,29.83,8,1,11,0.00
2013-6-22,88.7,74.6,62.4,43.7,25.5,0.4,44,18,7,29.85,29.74,13,3,13,0.00
2013-6-23,84.9,74.2,65.8,48.6,31.7,-8.0,42,23,4,29.80,29.68,9,1,9,0.04
2013-6-24,92.8,78.1,70.0,49.2,22.6,-8.6,41,15,4,29.71,29.62,13,2,15,0.00
2013-6-25,93.0,80.5,68.4,48.2,22.9,-8.8,41,14,5,29.65,29.50,13,3,13,0.00
2013-6-29,88.9,82.7,74.7,47.8,26.0,-7.9,37,14,4,29.29,29.20,12,4,12,0.28
2013-6-30,84.4,75.1,71.1,51.5,4.3,-8.8,39,9,4,29.44,29.29,22,1,22,0.67
2013-7-1,81.5,75.0,70.5,50.9,7.1,-8.8,37,10,4,29.59,29.44,12,4,14,0.20
2013-7-2,82.9,75.5,72.3,50.0,17.0,-8.8,37,16,4,29.77,29.59,14,5,14,0.00
2013-7-3,84.6,75.2,70.5,51.2,11.6,-8.8,37,11,4,29.83,29.77,11,2,11,0.75
2013-7-4,90.0,79.5,71.8,50.3,19.3,-8.8,37,13,4,29.85,29.77,15,4,15,0.00
2013-7-5,91.0,79.8,72.0,51.4,15.6,-8.8,37,10,4,29.83,29.74,15,4,15,0.00
2013-7-6,94.1,82.4,72.3,51.3,24.6,-8.8,39,14,4,29.80,29.68,12,3,13,0.00
2013-7-7,93.4,79.8,70.7,49.6,34.0,3.9,42,23,7,29.71,29.59,24,3,24,0.00
2013-7-8,87.1,77.3,70.2,48.9,16.2,-2.7,39,11,5,29.71,29.65,13,2,13,0.04
2013-7-9,83.1,76.6,71.4,48.4,36.0,22.8,41,24,14,29.71,29.62,9,1,9,0.00
2013-7-10,88.5,77.8,73.0,51.6,28.9,-8.6,42,22,4,29.62,29.47,16,2,16,0.00
2013-7-11,73.0,72.4,71.8,46.1,13.4,-1.5,39,13,5,29.50,29.44,12,2,12,0.08
2013-7-12,71.1,68.7,65.3,44.4,6.7,-2.9,46,11,5,29.62,29.53,11,3,11,0.24
2013-7-13,86.2,73.8,67.6,52.9,20.2,-2.9,50,16,5,29.88,29.62,10,1,10,0.12
2013-7-14,90.1,76.6,72.0,51.9,9.5,-8.8,39,10,4,29.94,29.88,10,1,10,0.00
2013-7-15,94.8,82.2,70.9,50.5,29.4,-8.5,39,18,4,29.91,29.77,10,2,10,0.00
2013-7-16,92.8,88.4,84.9,31.5,24.2,19.0,14,10,7,29.85,29.83,13,6,13,0.00
2013-7-17,96.3,89.7,78.8,23.8,10.0,6.1,10,5,4,29.83,29.71,9,2,11,0.00
2013-7-18,98.2,85.8,75.7,35.7,17.4,3.5,23,10,3,29.74,29.62,10,2,10,0.00
2013-7-19,97.2,83.8,73.4,42.2,23.1,3.5,29,13,3,29.62,29.47,16,2,23,0.20
2013-7-20,93.4,80.7,71.2,37.4,24.1,6.1,28,16,4,29.50,29.41,14,3,17,0.16
2013-7-21,91.0,78.5,70.2,35.1,11.7,-14.2,23,10,3,29.56,29.47,4,0,5,0.04
2013-7-22,89.8,79.0,71.8,40.4,29.2,8.6,25,18,5,29.56,29.38,14,0,15,0.16
2013-7-23,86.5,77.6,71.1,36.7,7.6,-20.0,25,8,2,29.38,29.26,17,3,17,0.08
2013-7-24,84.9,75.8,69.8,27.9,13.3,8.5,19,10,6,29.53,29.29,11,3,14,0.00
2013-7-25,82.2,70.2,60.8,12.4,8.7,0.5,12,9,7,29.68,29.53,13,3,13,0.00
2013-7-26,85.5,73.3,63.5,29.7,16.5,8.5,26,14,6,29.77,29.65,10,2,11,0.00
2013-7-27,85.8,72.4,65.3,32.4,19.2,8.6,26,15,6,29.80,29.62,15,3,15,0.00
2013-7-28,85.5,75.2,68.0,34.7,9.2,-14.5,23,10,3,29.91,29.56,9,2,17,0.16
2013-7-29,82.8,73.6,63.0,28.3,13.1,7.6,26,11,6,30.42,29.80,11,3,17,0.16
2013-7-30,82.9,71.6,60.4,21.4,10.1,6.7,21,10,6,30.68,29.94,10,2,11,0.00
2013-7-31,81.5,72.8,65.1,31.3,17.1,8.6,25,14,7,30.89,29.97,11,3,13,0.00
2013-8-1,82.9,72.7,66.6,42.5,25.9,-19.9,36,20,2,30.95,29.85,9,2,10,0.24
2013-8-2,87.1,75.4,65.8,32.6,18.5,8.6,27,14,6,30.92,29.94,12,2,12,0.00
2013-8-3,76.3,69.4,65.8,32.0,25.3,8.7,27,20,8,31.01,30.09,13,2,14,0.08
2013-8-4,82.4,71.0,63.3,30.8,16.4,6.8,27,14,7,31.01,30.24,17,4,19,0.00
2013-8-5,82.9,70.4,59.5,12.4,9.2,6.0,12,9,6,31.01,30.39,9,2,10,0.00
2013-8-6,72.9,67.9,65.7,35.4,25.5,7.6,29,21,10,31.01,30.47,8,1,9,0.08
2013-8-7,82.6,73.4,67.6,36.9,28.9,16.6,27,21,9,31.01,30.30,11,3,12,0.00
2013-8-8,86.2,75.0,69.1,41.8,27.5,-20.0,32,20,2,31.01,30.42,15,3,18,0.47
2013-8-9,87.1,78.7,72.9,40.1,20.9,-20.0,30,14,2,31.01,30.45,13,3,15,0.04
2013-8-10,85.5,76.1,70.2,33.2,18.7,1.2,23,13,6,31.01,30.71,10,2,10,0.00
2013-8-11,85.3,75.4,68.7,31.4,18.4,8.7,24,13,6,31.01,30.65,12,2,12,0.00
2013-8-12,88.9,77.3,68.2,35.2,19.3,1.4,24,13,5,31.01,30.74,9,1,9,0.00
2013-8-13,85.1,76.5,72.7,34.1,20.2,-20.0,23,14,2,31.01,30.68,11,3,13,0.08
2013-8-14,76.3,67.6,58.3,11.1,7.1,-0.4,11,9,7,31.01,30.80,17,5,17,0.00
2013-8-15,79.9,67.1,55.9,12.4,7.8,0.3,12,10,7,31.01,30.98,9,2,10,0.00
2013-8-16,81.7,67.6,56.8,26.4,12.0,6.0,27,13,7,31.01,30.86,9,1,9,0.00
2013-8-17,82.0,69.3,57.9,27.0,14.1,7.5,29,14,7,31.01,31.01,11,2,11,0.00
2013-8-18,74.1,69.0,65.5,30.3,13.4,8.5,26,12,8,31.01,30.95,10,1,10,0.00
2013-8-19,76.1,69.1,62.2,29.0,17.6,8.6,26,15,8,31.01,30.71,8,2,9,0.00
2013-8-20,88.3,75.2,63.7,33.5,19.5,3.8,27,15,5,31.01,30.86,10,2,11,0.00
2013-8-21,90.0,77.5,67.8,35.4,23.0,8.6,26,16,5,31.01,31.01,11,2,13,0.00
2013-8-22,88.5,78.5,70.2,34.6,19.0,8.6,23,13,5,31.01,31.01,14,3,14,0.00
2013-8-23,77.2,71.0,63.5,28.8,15.9,8.5,26,13,8,31.01,31.01,10,2,10,0.00
2013-8-24,83.7,70.5,61.2,29.3,13.6,6.4,27,13,6,31.01,30.92,10,2,13,0.00
2013-8-25,84.4,69.4,58.5,31.4,14.3,0.3,29,14,6,31.01,31.01,11,2,12,0.00
2013-8-26,87.8,74.0,61.2,12.5,9.5,6.3,11,8,5,31.01,31.01,11,3,13,0.00
2013-8-27,90.5,79.8,71.4,16.6,10.7,8.6,10,7,5,31.01,31.01,13,3,13,0.00
2013-8-28,79.5,74.7,70.7,36.9,29.6,9.6,25,20,10,31.01,31.01,11,2,13,0.00
2013-8-29,86.4,75.9,70.3,34.3,22.9,8.8,25,16,6,31.01,31.01,9,2,10,0.04
2013-8-30,88.3,76.9,69.3,33.8,21.4,8.6,26,15,5,31.01,31.01,11,3,11,0.00
2013-8-31,91.8,79.2,69.4,34.4,21.4,6.1,26,14,4,31.01,31.01,15,3,15,0.00
2013-9-1,93.0,79.6,69.1,34.7,21.2,6.1,25,14,4,31.01,31.01,8,1,10,0.00
2013-9-2,90.7,80.4,71.1,36.4,19.1,8.6,24,12,5,31.01,31.01,11,2,11,0.00
2013-9-3,85.5,76.8,66.9,34.6,18.0,8.5,24,13,6,31.01,31.01,15,4,15,0.00
2013-9-4,83.5,70.1,58.8,12.4,8.8,1.7,12,9,6,31.01,31.01,10,2,11,0.00
2013-9-5,83.3,71.4,60.4,19.5,9.4,0.3,19,9,6,31.01,31.01,15,4,17,0.00
2013-9-6,77.2,65.2,54.7,11.4,4.1,-1.1,10,9,7,31.01,31.01,9,2,10,0.00
2013-9-7,82.2,67.5,54.0,19.1,9.2,-1.1,25,11,7,31.01,31.01,10,2,11,0.00
2013-9-8,86.5,74.5,65.7,20.9,12.5,7.8,17,10,6,31.01,31.01,13,3,13,0.00
2013-9-9,80.1,69.5,59.7,19.9,7.5,0.3,14,9,7,31.01,21.94,11,3,11,0.00
2013-9-10,71.4,71.3,71.2,27.0,25.6,19.6,19,18,17,31.01,17.72,6,4,8,0.00
2013-9-14,58.6,55.9,53.8,1.0,-0.4,-1.5,10,10,9,17.72,17.72,0,0,0,0.00
2013-9-15,76.5,62.3,48.6,20.8,8.5,-1.6,27,13,7,17.72,17.72,0,0,0,0.00
2013-9-16,73.4,64.5,58.8,25.4,10.4,0.4,24,12,7,17.72,17.72,0,0,0,0.00
2013-9-17,68.9,58.5,48.0,7.5,1.0,-3.8,12,10,7,17.72,17.72,0,0,0,0.00
2013-9-18,72.0,57.6,45.5,21.8,5.2,-3.0,29,13,7,17.72,17.72,0,0,0,0.00
2013-9-19,77.9,62.6,49.3,21.0,9.4,3.1,26,13,8,17.72,17.72,0,0,0,0.00
2013-9-20,81.1,65.9,54.1,26.6,12.5,6.7,28,14,7,17.72,17.72,0,0,0,0.00
2013-9-21,78.1,65.7,58.6,37.5,22.0,-6.1,35,21,6,17.72,17.72,0,0,0,0.98
2013-9-22,71.2,62.4,55.2,20.4,-2.7,-10.6,18,7,5,17.72,17.72,0,0,0,0.00
2013-9-23,66.6,57.7,50.7,5.1,0.8,-1.6,14,10,7,17.72,17.72,0,0,0,0.00
2013-9-24,71.2,57.6,46.6,13.7,4.6,-2.0,24,12,7,17.72,17.72,0,0,0,0.00
2013-9-25,75.2,60.5,49.6,11.1,4.9,-1.1,14,11,7,17.72,17.72,0,0,0,0.00
2013-9-26,75.2,62.3,54.9,11.1,7.2,0.3,15,11,7,17.72,17.72,0,0,0,0.00
2013-9-27,72.5,62.8,55.8,26.2,13.1,4.8,25,15,9,17.72,17.72,0,0,0,0.00
2013-9-28,70.9,61.7,55.6,22.5,11.4,0.3,26,15,7,17.72,17.72,0,0,0,0.00
2013-9-29,72.0,60.5,51.4,25.6,9.0,-10.8,28,14,6,17.72,17.72,0,0,0,0.00
2013-9-30,73.4,61.0,51.4,24.1,9.1,-10.8,28,14,6,17.72,17.72,0,0,0,0.00
2013-10-1,80.6,66.2,54.7,24.7,13.1,4.9,26,14,7,17.72,17.72,0,0,0,0.00
2013-10-2,82.9,69.7,59.0,24.6,11.6,6.5,24,11,6,17.72,17.72,0,0,0,0.00
2013-10-3,81.5,70.6,62.2,21.0,12.5,6.7,18,11,7,17.72,17.72,0,0,0,0.00
2013-10-4,84.0,71.5,60.8,30.9,13.3,-12.5,26,12,4,17.72,17.72,0,0,0,0.00
2013-10-5,87.1,74.7,66.4,29.7,16.8,8.6,24,13,6,17.72,17.72,0,0,0,0.00
2013-10-6,86.9,73.8,65.1,32.6,13.0,-14.5,25,11,3,17.72,17.72,0,0,0,0.00
2013-10-7,73.9,65.0,54.9,32.6,10.7,-14.4,25,14,3,17.72,17.72,0,0,0,0.75
2013-10-8,65.8,56.0,48.0,18.1,4.9,-1.6,27,14,8,17.72,17.72,0,0,0,0.00
2013-10-9,60.8,56.3,53.6,20.3,3.1,-1.6,26,12,9,17.72,17.72,0,0,0,0.04
2013-10-10,57.6,55.0,52.3,22.0,-0.2,-10.8,29,13,6,17.72,17.72,0,0,0,1.85
2013-10-11,61.5,59.2,56.5,35.4,15.1,-10.0,38,23,6,17.72,17.72,0,0,0,2.36
2013-10-12,65.1,61.6,59.0,39.4,9.0,-12.5,46,19,4,17.72,17.72,0,0,0,0.24
2013-10-13,63.3,58.7,54.5,9.8,-8.4,-10.8,15,6,5,17.72,17.72,0,0,0,0.20
2013-10-14,66.6,58.6,54.1,14.6,-2.6,-10.8,20,9,5,17.72,17.72,0,0,0,0.00
2013-10-15,67.8,58.2,50.9,15.4,-1.3,-10.8,18,9,6,17.72,17.72,0,0,0,0.00
2013-10-16,69.3,62.6,58.8,22.9,7.4,-10.6,22,12,5,17.72,17.72,0,0,0,0.00
2013-10-17,74.8,65.1,59.0,25.9,-0.9,-12.5,20,8,4,17.72,17.72,0,0,0,0.04
2013-10-18,63.7,55.2,48.0,23.5,2.3,-10.4,27,12,5,29.62,17.72,0,0,0,0.00
2013-10-19,65.1,55.0,45.9,23.2,9.3,-0.9,28,18,8,29.59,29.38,0,0,0,0.00
2013-10-20,60.6,52.1,44.4,1.5,-1.6,-4.9,13,11,9,29.71,29.44,0,0,0,0.00
2013-10-21,64.9,51.9,40.5,13.0,0.5,-4.9,25,13,8,29.74,29.56,0,0,0,0.00
2013-10-22,61.9,52.6,45.0,17.2,3.0,-3.8,28,14,9,29.56,29.41,0,0,0,0.00
2013-10-23,57.2,49.4,43.3,1.0,-2.4,-4.9,13,11,9,29.47,29.23,0,0,0,0.00
2013-10-24,51.1,43.9,38.3,-1.7,-4.7,-7.5,14,12,11,29.71,29.47,0,0,0,0.00
2013-10-25,53.2,41.4,35.4,-0.1,-5.7,-8.9,15,13,11,29.91,29.71,0,0,0,0.00
2013-10-26,54.5,44.3,32.7,0.2,-4.5,-9.8,15,13,10,29.88,29.53,0,0,0,0.00
2013-10-27,58.1,47.5,37.6,1.0,-3.3,-7.5,14,12,9,29.74,29.53,0,0,0,0.00
2013-10-28,61.9,47.2,36.1,7.3,-2.6,-8.3,24,13,9,29.88,29.74,0,0,0,0.00
2013-10-29,60.4,49.0,40.3,1.4,-2.3,-6.7,16,12,9,29.97,29.88,0,0,0,0.00
2013-10-30,64.6,54.5,47.7,24.7,6.0,-10.8,29,15,6,29.91,29.74,0,0,0,0.00
2013-10-31,67.3,60.1,53.8,27.2,1.2,-10.8,24,10,5,29.80,29.38,0,0,0,0.04
2013-11-1,69.8,64.3,55.9,27.0,6.6,-12.5,24,11,4,29.38,29.21,0,0,0,0.08
2013-11-2,66.9,56.8,47.8,20.6,1.7,-10.8,25,11,6,29.47,29.23,0,0,0,0.00
2013-11-3,54.3,47.6,37.9,0.2,-3.0,-7.5,14,12,10,30.06,29.47,0,0,0,0.00
2013-11-4,46.6,38.3,30.6,-3.3,-7.4,-14.4,15,14,12,30.21,30.06,0,0,0,0.00
2013-11-5,57.6,48.0,36.0,1.0,-3.0,-8.6,14,12,9,30.21,30.06,0,0,0,0.00
2013-11-6,67.3,55.8,44.8,20.5,2.7,-10.1,28,12,7,30.06,29.65,0,0,0,0.00
2013-11-7,60.1,52.5,42.4,24.2,-0.4,-10.8,27,12,6,29.65,29.47,0,0,0,0.00
2013-11-8,50.0,40.9,33.1,-2.2,-5.9,-9.5,15,13,11,29.88,29.65,0,0,0,0.00
2013-11-9,51.8,42.6,31.6,-1.2,-5.4,-10.7,15,13,11,29.94,29.62,0,0,0,0.00
2013-11-10,60.4,48.1,39.2,1.4,-3.2,-7.5,13,12,9,29.80,29.53,0,0,0,0.00
2013-11-11,55.0,46.7,35.2,0.2,-3.6,-8.9,15,12,10,29.88,29.59,0,0,0,0.00
2013-11-12,49.8,40.0,28.6,-2.2,-6.7,-16.0,15,13,11,29.97,29.56,0,0,0,0.00
2013-11-13,41.4,33.6,27.3,-5.8,-11.0,-17.0,15,14,13,30.03,29.97,0,0,0,0.00
2013-11-14,56.1,39.6,27.1,0.3,-8.0,-17.2,15,13,10,29.97,29.83,0,0,0,0.00
2013-11-15,58.3,43.6,30.9,1.0,-5.0,-11.3,15,13,9,29.85,29.77,0,0,0,0.00
2013-11-16,52.9,48.3,45.1,17.0,0.9,-11.7,28,15,8,29.91,29.83,0,0,0,0.12
2013-11-17,63.0,55.7,49.8,25.5,-1.7,-10.8,24,10,6,29.83,29.35,0,0,0,0.00
2013-11-18,64.9,58.1,48.7,20.6,0.8,-10.8,26,10,5,29.53,29.29,0,0,0,0.12
2013-11-19,48.7,43.2,34.0,-2.2,-4.8,-8.9,15,13,11,29.97,29.53,0,0,0,0.00
2013-11-20,43.2,35.4,30.6,-4.3,-8.6,-11.6,15,14,13,30.15,29.94,0,0,0,0.00
2013-11-21,49.3,40.8,29.5,-2.2,-6.3,-12.5,15,13,11,30.15,29.97,0,0,0,0.00
2013-11-22,59.5,52.3,45.1,5.2,-1.3,-4.4,14,11,9,29.97,29.59,0,0,0,0.00
2013-11-23,55.9,43.1,30.2,0.2,-5.1,-14.7,15,13,10,29.77,29.59,0,0,0,0.00
2013-11-24,31.1,26.5,22.8,-14.0,-16.9,-18.9,15,14,13,30.09,29.77,0,0,0,0.00
2013-11-25,35.1,28.0,20.5,-7.9,-14.5,-19.8,15,14,13,30.15,29.91,0,0,0,0.00
2013-11-26,48.4,35.8,32.4,6.9,-9.0,-14.4,31,15,8,29.91,29.15,0,0,0,1.34
2013-11-27,48.4,37.0,28.4,10.1,-9.0,-16.2,30,14,8,29.59,29.09,0,0,0,0.55
2013-11-28,35.8,30.2,25.9,-7.6,-13.8,-17.5,15,14,13,30.06,29.59,0,0,0,0.00
2013-11-29,39.7,31.9,23.7,-6.1,-12.5,-18.5,15,14,13,30.30,30.03,0,0,0,0.00
2013-11-30,36.7,30.6,23.5,-7.6,-12.7,-18.6,15,14,13,30.30,29.97,0,0,0,0.00
2013-12-1,46.9,36.5,25.9,-3.2,-8.9,-17.5,16,14,12,29.97,29.59,0,0,0,0.00
2013-12-2,48.7,42.2,38.8,-2.2,-5.4,-7.5,14,13,11,29.62,29.47,0,0,0,0.00
2013-12-3,54.3,44.3,37.6,0.2,-4.5,-7.5,14,12,10,29.59,29.47,0,0,0,0.00
2013-12-4,52.7,45.6,37.6,5.0,-3.0,-7.5,16,13,11,29.68,29.59,0,0,0,0.00
2013-12-5,66.6,57.1,49.3,26.1,3.5,-10.8,27,13,5,29.68,29.53,0,0,0,0.00
2013-12-6,63.0,50.2,36.9,-7.0,-10.5,-14.2,11,8,5,29.77,29.47,0,0,0,0.87
2013-12-7,41.0,36.2,30.2,8.8,-10.5,-14.9,29,13,11,30.12,29.71,0,0,0,0.20
2013-12-8,31.6,28.5,27.0,2.6,-10.0,-17.0,32,19,12,30.18,29.88,0,0,0,0.00
2013-12-9,35.4,33.4,31.5,-13.6,-14.4,-15.3,12,12,11,29.88,29.62,0,0,0,0.43
2013-12-10,35.6,32.8,28.8,7.1,-11.5,-15.9,30,14,11,29.80,29.56,0,0,0,0.00
2013-12-11,36.7,29.7,24.8,-7.6,-14.1,-17.6,15,14,13,29.97,29.80,0,0,0,0.00
2013-12-12,30.9,26.0,22.8,-14.1,-17.1,-18.9,15,14,13,30.00,29.83,0,0,0,0.00
2013-12-13,38.7,30.6,21.9,-6.4,-12.6,-18.9,15,14,13,29.88,29.80,0,0,0,0.00
2013-12-14,37.4,34.2,31.5,6.2,-8.8,-15.1,31,16,11,29.91,29.29,0,0,0,0.51
2013-12-15,43.5,35.9,30.0,10.1,-10.0,-15.1,29,13,11,29.53,29.21,0,0,0,0.16
2013-12-16,35.4,32.9,30.0,-7.6,-10.4,-14.9,15,14,13,29.77,29.50,0,0,0,0.00
2013-12-17,36.7,33.1,30.6,-1.1,-10.6,-14.3,25,14,12,29.77,29.53,0,0,0,0.00
2013-12-18,37.6,32.3,26.4,3.8,-9.2,-17.5,31,16,13,29.80,29.56,0,0,0,0.00
2013-12-19,55.2,38.5,25.2,0.2,-8.2,-17.3,16,13,10,29.80,29.65,0,0,0,0.00
2013-12-20,55.2,49.5,40.3,0.2,-2.5,-6.7,13,11,10,29.71,29.59,0,0,0,0.00
2013-12-21,67.6,59.5,51.4,9.1,1.5,-1.6,11,9,7,29.59,29.50,0,0,0,0.00
2013-12-22,68.0,63.1,59.2,23.5,0.6,-10.6,21,9,5,29.59,29.41,0,0,0,0.16
2013-12-23,61.7,53.2,37.0,13.1,-6.7,-10.8,24,9,5,29.83,29.50,0,0,0,0.83
2013-12-24,38.7,32.7,22.8,-6.4,-11.2,-18.9,15,14,12,30.03,29.77,0,0,0,0.00
2013-12-25,30.2,24.5,19.8,-14.7,-17.8,-20.4,15,14,13,30.15,29.97,0,0,0,0.00
2013-12-26,41.9,30.1,21.9,-5.3,-12.1,-18.9,23,15,13,29.97,29.80,0,0,0,0.00
2013-12-27,47.1,35.0,24.6,-2.9,-10.3,-17.8,15,13,12,30.00,29.88,0,0,0,0.00
2013-12-28,55.0,40.4,27.9,0.2,-7.5,-16.6,15,13,10,29.91,29.71,0,0,0,0.00
2013-12-29,46.4,43.1,38.1,12.1,-5.9,-13.5,29,13,8,29.71,29.12,0,0,0,0.91
2013-12-30,44.6,38.0,31.5,11.3,-6.3,-14.2,29,15,10,29.77,29.38,0,0,0,0.00
2013-12-31,41.5,33.0,26.6,-5.6,-11.3,-17.5,15,14,13,29.91,29.68,0,0,0,0.00
2014-1-1,44.6,33.2,24.4,-3.3,-10.3,-17.9,18,14,12,30.00,29.71,0,0,0,0.00
2014-1-2,36.5,32.6,27.3,5.1,-3.9,-11.3,31,21,14,29.71,29.21,0,0,0,0.00